VAM | Vabird-VBD

Virtual Vabird! Aerolínea Virtual de habla hispana, desde 2011




 INFORMACIÓN METAR y TAF
METAR FOR RJAA
ADDS - METARS form results

(1521 UTC 08 March 2021)
Data provider http://aviationweather.gov/metar/data/
 
METAR text: RJAA 081500Z 02010KT 9999 FEW025 BKN040 07/02 Q1025 NOSIG RMK 1CU025 7SC040 A3027
Conditions at: RJAA (NARITA INTL , JP) observed 1500 UTC 08 March 2021
Temperature: 7.0°C (45°F)
Dewpoint: 2.0°C (36°F) [RH = 70%]
Pressure (altimeter): 30.27 inches Hg (1025.0 mb)
Winds: from the NNE (20 degrees) at 12 MPH (10 knots; 5.1 m/s)
Visibility: 6 or more miles (10+ km)
Ceiling: 4000 feet AGL
Clouds: few clouds at 2500 feet AGL
broken clouds at 4000 feet AGL
Weather: no significant weather observed at this time

METAR text: RJAA 081430Z 02011KT 9999 FEW025 BKN040 07/02 Q1025 NOSIG RMK 1CU025 7SC040 A3028
Conditions at: RJAA (NARITA INTL , JP) observed 1430 UTC 08 March 2021
Temperature: 7.0°C (45°F)
Dewpoint: 2.0°C (36°F) [RH = 70%]
Pressure (altimeter): 30.27 inches Hg (1025.0 mb)
Winds: from the NNE (20 degrees) at 13 MPH (11 knots; 5.7 m/s)
Visibility: 6 or more miles (10+ km)
Ceiling: 4000 feet AGL
Clouds: few clouds at 2500 feet AGL
broken clouds at 4000 feet AGL
Weather: no significant weather observed at this time

Forecast for: RJAA (NARITA INTL , JP)
Text: TAF RJAA 081105Z 0812/0918 36006KT 9999 FEW020 BKN030
Forecast period: 1200 UTC 08 March 2021 to 0300 UTC 09 March 2021
Forecast type: FROM: standard forecast or significant change
Winds: from the N (360 degrees) at 7 MPH (6 knots; 3.1 m/s)
Visibility: 6 or more miles (10+ km)
Ceiling: 3000 feet AGL
Clouds: few clouds at 2000 feet AGL
broken clouds at 3000 feet AGL
Weather: no significant weather forecast for this period
Text: BECMG 0903/0906 10008KT
Forecast period: 0300 to 0900 UTC 09 March 2021
Forecast type: BECOMING: Conditions expected to become as follows by 0600 UTC 09 March 2021
Winds: from the E (100 degrees) at 9 MPH (8 knots; 4.1 m/s)
Visibility: 6 or more miles (10+ km)
Ceiling: 3000 feet AGL
Clouds: few clouds at 2000 feet AGL
broken clouds at 3000 feet AGL
Weather: no significant weather forecast for this period
Text: BECMG 0909/0912 36005KT
Forecast period: 0900 to 1800 UTC 09 March 2021
Forecast type: BECOMING: Conditions expected to become as follows by 1200 UTC 09 March 2021
Winds: from the N (360 degrees) at 6 MPH (5 knots; 2.6 m/s)
Visibility: 6 or more miles (10+ km)
Ceiling: 3000 feet AGL
Clouds: few clouds at 2000 feet AGL
broken clouds at 3000 feet AGL
Weather: no significant weather forecast for this period

 MAPA DE AEROPUERTO

 INFORMACIÓN DE PISTA